Granite Falls, Minnesota
Current Conditions -  °F | °C
As of 2:52 AM on Sunday 26 Oct 2014 (Local Time) from KGDB Reporting Station
Clear Clear  
Wind Chill: 36°   Ceiling: Unl
Heat Index: 36°   Visibility: 10mi
Dew Point: 31°   Wind: 3mph
Humidity: 82%   Direction: 130°SE
Pressure: 30.02"   Gusts: NA
Location:  44.81°N, 95.55°W
Report Text: KGDB 260752Z AUTO 13003KT 10SM CLR 02/00 A3002 RMK AO2 T00221005
Loading
Personal Weather Stations






























Interactive Weather Map
Tropical Storm Tracking
New forecast layout! Learn more

10-Day Weather Forecast

Advertisements
Track Severe Weather on mobile